createdAt,value
2023-02-21T00:01:51.438Z,10.90
2023-02-21T00:14:17.227Z,9.18
2023-02-21T00:19:37.435Z,8.52
2023-02-21T00:24:57.249Z,6.90
2023-02-21T00:30:17.297Z,9.63
2023-02-21T00:35:37.093Z,10.23
2023-02-21T00:40:57.583Z,7.57
2023-02-21T00:46:17.360Z,10.50
2023-02-21T00:51:37.225Z,8.13
2023-02-21T00:56:57.846Z,9.98
2023-02-21T01:02:17.776Z,8.90
2023-02-21T01:07:37.874Z,8.63
2023-02-21T01:12:58.304Z,9.27
2023-02-21T01:18:18.161Z,7.28
2023-02-21T01:23:37.934Z,6.82
2023-02-21T01:28:57.918Z,7.90
2023-02-21T01:34:17.747Z,7.70
2023-02-21T01:39:37.748Z,8.02
2023-02-21T01:45:01.137Z,9.20
2023-02-21T01:50:25.723Z,7.95
2023-02-21T01:55:46.095Z,8.23
2023-02-21T02:01:05.940Z,7.82
2023-02-21T02:06:29.145Z,6.93
2023-02-21T02:12:19.939Z,8.68
2023-02-21T02:17:59.847Z,10.20
2023-02-21T02:23:27.363Z,6.40
2023-02-21T02:28:47.330Z,7.05
2023-02-21T02:34:27.491Z,7.10
2023-02-21T02:39:51.432Z,7.22
2023-02-21T02:44:58.916Z,8.45
2023-02-21T02:50:01.700Z,7.93
2023-02-21T02:55:20.958Z,7.75
2023-02-21T03:00:22.867Z,8.43
2023-02-21T03:05:45.875Z,8.40
2023-02-21T03:11:09.406Z,7.85
2023-02-21T03:16:24.993Z,7.72
2023-02-21T03:21:35.364Z,9.35
2023-02-21T03:26:40.656Z,8.63
2023-02-21T03:31:48.164Z,7.88
2023-02-21T03:36:49.572Z,9.07
2023-02-21T03:41:50.907Z,9.52
2023-02-21T03:46:52.350Z,11.05
2023-02-21T03:51:53.860Z,10.43
2023-02-21T03:56:57.318Z,8.07
2023-02-21T04:01:58.662Z,10.32
2023-02-21T04:07:00.214Z,7.55
2023-02-21T04:12:01.596Z,8.32
2023-02-21T04:17:02.882Z,10.20
2023-02-21T04:22:04.644Z,10.30
2023-02-21T04:27:06.491Z,8.18
2023-02-21T04:32:10.469Z,11.35
2023-02-21T04:37:11.844Z,8.27
2023-02-21T04:42:13.164Z,10.43
2023-02-21T04:47:14.492Z,10.93
2023-02-21T04:52:15.801Z,9.73
2023-02-21T04:57:17.356Z,9.20
2023-02-21T05:02:18.816Z,12.10
2023-02-21T05:07:20.170Z,9.73
2023-02-21T05:12:21.587Z,9.65
2023-02-21T05:17:22.906Z,11.00
2023-02-21T05:22:24.536Z,8.13
2023-02-21T05:27:25.875Z,11.20
2023-02-21T05:32:29.594Z,9.48
2023-02-21T05:37:31.484Z,8.65
2023-02-21T05:42:33.751Z,8.73
2023-02-21T05:47:35.252Z,10.30
2023-02-21T05:52:36.665Z,9.70
2023-02-21T05:57:39.471Z,11.00
2023-02-21T06:02:40.826Z,9.75
2023-02-21T06:07:42.338Z,14.55
2023-02-21T06:12:43.875Z,11.43
2023-02-21T06:17:45.365Z,14.88
2023-02-21T06:22:47.930Z,14.15
2023-02-21T06:27:49.561Z,10.05
2023-02-21T06:32:51.006Z,11.13
2023-02-21T06:37:52.355Z,9.48
2023-02-21T06:42:53.653Z,13.35
2023-02-21T06:47:54.990Z,12.32
2023-02-21T06:53:03.301Z,13.15
2023-02-21T06:58:05.149Z,12.68
2023-02-21T07:03:06.717Z,12.88
2023-02-21T07:08:08.187Z,13.77
2023-02-21T07:13:09.829Z,12.65
2023-02-21T07:18:11.158Z,13.70
2023-02-21T07:23:12.512Z,10.77
2023-02-21T07:28:14.263Z,11.40
2023-02-21T07:33:15.698Z,12.35
2023-02-21T07:38:29.074Z,16.30
2023-02-21T07:43:31.912Z,13.05
2023-02-21T07:48:34.134Z,11.98
2023-02-21T07:53:36.275Z,13.70
2023-02-21T07:58:38.009Z,16.33
2023-02-21T08:03:40.846Z,13.93
2023-02-21T08:08:42.437Z,13.35
2023-02-21T08:13:44.120Z,12.18
2023-02-21T08:18:48.055Z,13.40
2023-02-21T08:23:54.536Z,13.27
2023-02-21T08:28:56.182Z,12.50
2023-02-21T08:33:57.704Z,14.40
2023-02-21T08:38:59.827Z,13.98
2023-02-21T08:44:01.171Z,14.10
2023-02-21T08:49:03.837Z,13.80
2023-02-21T08:54:05.305Z,13.50
2023-02-21T08:59:06.804Z,14.35
2023-02-21T09:04:08.198Z,18.08
2023-02-21T09:09:09.580Z,14.43
2023-02-21T09:14:10.942Z,12.73
2023-02-21T09:19:13.755Z,13.40
2023-02-21T09:24:15.437Z,10.90
2023-02-21T09:29:16.776Z,16.73
2023-02-21T09:34:18.529Z,16.92
2023-02-21T09:39:19.956Z,12.55
2023-02-21T09:44:26.231Z,12.88
2023-02-21T09:49:34.092Z,12.85
2023-02-21T09:54:39.341Z,15.40
2023-02-21T09:59:40.859Z,11.60
2023-02-21T10:05:17.761Z,12.98
2023-02-21T10:11:08.785Z,13.18
2023-02-21T10:16:20.236Z,14.55
2023-02-21T10:21:27.130Z,14.27
2023-02-21T10:26:29.772Z,15.05
2023-02-21T10:31:35.390Z,14.15
2023-02-21T10:36:36.840Z,11.52
2023-02-21T10:41:41.379Z,10.65
2023-02-21T10:46:48.061Z,12.25
2023-02-21T10:52:04.920Z,12.23
2023-02-21T10:57:16.192Z,11.23
2023-02-21T11:02:30.420Z,9.50
2023-02-21T11:07:32.241Z,11.20
2023-02-21T11:12:33.826Z,9.82
2023-02-21T11:17:35.200Z,10.15
2023-02-21T11:22:42.191Z,9.18
2023-02-21T11:27:46.137Z,10.57
2023-02-21T11:32:57.160Z,11.20
2023-02-21T11:38:02.015Z,9.65
2023-02-21T11:43:19.028Z,9.35
2023-02-21T11:48:28.026Z,8.18
2023-02-21T11:53:35.213Z,8.02
2023-02-21T11:58:53.254Z,8.98
2023-02-21T12:04:12.344Z,9.68
2023-02-21T12:09:25.443Z,8.80
2023-02-21T12:14:29.705Z,8.93
2023-02-21T12:19:53.216Z,7.63
2023-02-21T12:25:16.968Z,7.57
2023-02-21T12:30:36.570Z,11.90
2023-02-21T12:35:54.205Z,10.70
2023-02-21T12:41:14.558Z,7.05
2023-02-21T12:46:40.474Z,6.47
2023-02-21T12:52:01.924Z,8.20
2023-02-21T12:57:10.232Z,7.00
2023-02-21T13:02:35.540Z,6.63
2023-02-21T13:07:44.380Z,7.25
2023-02-21T13:13:04.247Z,7.77
2023-02-21T13:18:09.078Z,6.15
2023-02-21T13:23:51.477Z,8.25
2023-02-21T13:28:54.829Z,6.40
2023-02-21T13:34:08.988Z,5.80
2023-02-21T13:39:17.665Z,7.40
2023-02-21T13:44:30.766Z,7.00
2023-02-21T13:49:49.653Z,5.82
2023-02-21T14:00:30.005Z,4.93
2023-02-21T14:05:52.692Z,6.03
2023-02-21T14:10:58.520Z,5.53
2023-02-21T14:16:09.002Z,6.47
2023-02-21T14:21:33.588Z,7.45
2023-02-21T14:26:57.883Z,5.25
2023-02-21T14:32:05.279Z,4.47
2023-02-21T14:37:28.068Z,4.90
2023-02-21T14:42:53.215Z,5.25
2023-02-21T14:48:17.776Z,5.10
2023-02-21T14:53:41.955Z,3.80
2023-02-21T14:59:15.947Z,3.70
2023-02-21T15:04:37.385Z,3.88
2023-02-21T15:09:38.795Z,4.15
2023-02-21T15:14:48.789Z,4.10
2023-02-21T15:20:25.995Z,5.82
2023-02-21T15:25:27.454Z,4.80
2023-02-21T15:30:41.430Z,6.18
2023-02-21T15:36:05.470Z,5.63
2023-02-21T15:41:14.125Z,7.10
2023-02-21T15:46:22.657Z,6.65
2023-02-21T15:51:25.116Z,8.32
2023-02-21T15:56:28.545Z,7.53
2023-02-21T16:01:30.068Z,10.23
2023-02-21T16:06:34.327Z,6.28
2023-02-21T16:12:01.762Z,7.55
2023-02-21T16:17:13.991Z,7.60
2023-02-21T16:22:18.484Z,9.02
2023-02-21T16:27:19.902Z,10.30
2023-02-21T16:32:21.767Z,7.55
2023-02-21T16:37:23.309Z,9.90
2023-02-21T16:42:25.492Z,8.65
2023-02-21T16:47:27.656Z,8.77
2023-02-21T16:52:29.092Z,8.98
2023-02-21T16:57:30.501Z,9.27
2023-02-21T17:02:31.921Z,8.65
2023-02-21T17:07:35.047Z,8.85
2023-02-21T17:12:37.047Z,8.70
2023-02-21T17:17:38.696Z,9.45
2023-02-21T17:22:40.341Z,9.73
2023-02-21T17:27:42.442Z,11.10
2023-02-21T17:32:46.919Z,12.52
2023-02-21T17:37:49.940Z,10.32
2023-02-21T17:42:51.689Z,11.52
2023-02-21T17:47:56.255Z,9.68
2023-02-21T17:52:59.260Z,9.32
2023-02-21T17:58:02.150Z,10.18
2023-02-21T18:03:06.107Z,12.05
2023-02-21T18:08:07.516Z,12.48
2023-02-21T18:13:08.957Z,16.60
2023-02-21T18:18:10.328Z,15.10
2023-02-21T18:23:12.410Z,19.08
2023-02-21T18:28:14.010Z,13.50
2023-02-21T18:33:15.390Z,11.45
2023-02-21T18:38:16.994Z,12.80
2023-02-21T18:43:24.709Z,13.55
2023-02-21T18:48:27.000Z,14.32
2023-02-21T18:53:28.935Z,13.13
2023-02-21T18:58:30.603Z,16.35
2023-02-21T19:03:32.681Z,16.95
2023-02-21T19:08:35.061Z,15.25
2023-02-21T19:13:36.449Z,15.93
2023-02-21T19:18:37.803Z,16.13
2023-02-21T19:23:40.866Z,17.60
2023-02-21T19:28:42.617Z,20.58
2023-02-21T19:33:44.584Z,14.32
2023-02-21T19:38:46.299Z,15.65
2023-02-21T19:43:47.769Z,17.45
2023-02-21T19:48:49.743Z,15.77
2023-02-21T19:53:51.813Z,12.75
2023-02-21T19:58:53.725Z,14.85
2023-02-21T20:03:55.590Z,13.32
2023-02-21T20:08:57.252Z,13.43
2023-02-21T20:14:00.022Z,14.55
2023-02-21T20:19:02.299Z,13.85
2023-02-21T20:24:06.706Z,14.77
2023-02-21T20:29:08.233Z,13.13
2023-02-21T20:34:09.994Z,12.35
2023-02-21T20:39:31.322Z,12.57
2023-02-21T20:44:35.461Z,12.02
2023-02-21T20:49:37.452Z,13.50
2023-02-21T20:54:39.136Z,14.43
2023-02-21T20:59:41.787Z,15.65
2023-02-21T21:04:43.641Z,15.88
2023-02-21T21:09:46.215Z,14.20
2023-02-21T21:14:49.578Z,17.65
2023-02-21T21:19:53.488Z,13.32
2023-02-21T21:24:55.687Z,12.85
2023-02-21T21:29:57.452Z,11.70
2023-02-21T21:35:02.153Z,12.00
2023-02-21T21:40:16.163Z,11.95
2023-02-21T21:45:25.243Z,12.30
2023-02-21T21:50:27.379Z,11.70
2023-02-21T21:55:30.346Z,12.52
2023-02-21T22:00:42.445Z,13.02
2023-02-21T22:05:44.150Z,11.60
2023-02-21T22:10:45.904Z,11.50
2023-02-21T22:15:47.992Z,11.73
2023-02-21T22:20:50.141Z,12.32
2023-02-21T22:25:52.557Z,11.27
2023-02-21T22:30:54.001Z,11.38
2023-02-21T22:35:55.371Z,10.80
2023-02-21T22:41:00.083Z,12.13
2023-02-21T22:46:01.801Z,12.80
2023-02-21T22:51:03.472Z,11.05
2023-02-21T22:56:10.057Z,11.45
2023-02-21T23:01:12.560Z,10.05
2023-02-21T23:06:15.437Z,10.82
2023-02-21T23:11:19.121Z,10.52
2023-02-21T23:16:23.813Z,11.57
2023-02-21T23:26:27.746Z,12.43
2023-02-21T23:31:29.195Z,10.98
2023-02-21T23:36:31.631Z,12.25
2023-02-21T23:41:34.653Z,12.13
2023-02-21T23:46:39.979Z,10.68
2023-02-21T23:51:43.173Z,14.02
2023-02-21T23:56:47.387Z,11.00
